ETOU/WIE METAR and TAF weather

Enter ICAO airport designator
Station Type Date Time Source
ETOU METAR 2019/10/18 06:08 UTC NOAA

ETOU 180608Z AUTO 17007KT 8000 BR BKN004 OVC070 13/13 A2984 RMK AO2 RAE0557 CIG 004V070 BKN V FEW SLP106 $


Station Type Date Time Source
ETOU Decoded METAR 2019/10/18 06:08 UTC NOAA

Wiesbaden, Germany (ETOU) 50-03N 008-20E
Oct 18, 2019 - 02:08 AM EDT / 2019.10.18 0608 UTC
Wind: from the S (170 degrees) at 8 MPH (7 KT):0
Visibility: 4 mile(s):0
Sky conditions: overcast
Weather: mist
Temperature: 55 F (13 C)
Dew Point: 55 F (13 C)
Relative Humidity: 100%
Pressure (altimeter): 29.84 in. Hg (1010 hPa)
ob: ETOU 180608Z AUTO 17007KT 8000 BR BKN004 OVC070 13/13 A2984 RMK AO2 RAE0557 CIG 004V070 BKN V FEW SLP106
cycle: 6

Station Type Date Time Source
ETOU TAF 2019/10/18 05:30 UTC NOAA

TAF
AMD ETOU 1805/1909 VRB06KT 9999 OVC005 QNH2985INS
TEMPO 1805/1806 OVC015
BECMG 1806/1807 18009KT 9999 OVC015 QNH2982INS
BECMG 1810/1811 20012KT 8000 -SHRA OVC020 QNH2979INS
BECMG 1816/1817 VRB06KT 9999 NSW BKN030 QNH2981INS
BECMG 1907/1908 17009KT 8000 -SHRA OVC020 QNH2986INS TX15/1813Z TN11/1901Z

Example: see airport list